Time;durP1;ratioP1;P1;durP2;ratioP2;P2;SDS_P1;SDS_P2;PMS_P1;PMS_P2;Temp;Humidity;BMP_temperature;BMP_pressure;BME280_temperature;BME280_humidity;BME280_pressure;Samples;Min_cycle;Max_cycle;Signal;HPM_P1;HPM_P2
2021/03/01 00:02:55;;;;;;;15.87;13.07;;;;;;;7.03;49.82;99471.34;8353505;28;20597;-86
2021/03/01 00:06:58;;;;;;;16.03;14.33;;;;;;;7.03;49.71;99468.78;8347619;28;20260;-87
2021/03/01 00:11:01;;;;;;;16.97;14.03;;;;;;;7.08;50.13;99481.59;8346171;28;20258;-85
2021/03/01 00:15:03;;;;;;;18.47;15.17;;;;;;;7.01;48.56;99481.66;8326680;28;20205;-84
2021/03/01 00:19:05;;;;;;;16.67;14.00;;;;;;;6.75;49.04;99476.63;8346161;28;20211;-84
2021/03/01 00:23:10;;;;;;;18.93;15.00;;;;;;;6.65;49.72;99480.13;8371186;28;20228;-85
2021/03/01 00:27:13;;;;;;;16.83;14.13;;;;;;;6.63;49.20;99484.41;8359359;28;20199;-85
2021/03/01 00:31:15;;;;;;;15.20;13.53;;;;;;;6.60;49.62;99469.81;8358730;28;20200;-85
2021/03/01 00:35:17;;;;;;;18.17;14.33;;;;;;;6.57;50.47;99477.56;8358860;28;20539;-84
2021/03/01 00:39:20;;;;;;;18.33;14.00;;;;;;;6.53;49.79;99480.16;8359322;28;20197;-85
2021/03/01 00:43:23;;;;;;;17.87;14.80;;;;;;;6.51;49.45;99480.19;8359434;28;20228;-85
2021/03/01 00:47:25;;;;;;;19.13;14.87;;;;;;;6.46;49.86;99469.88;8357551;28;20207;-86
2021/03/01 00:51:27;;;;;;;17.17;14.30;;;;;;;6.40;49.89;99469.91;8347618;28;20222;-85
2021/03/01 00:55:31;;;;;;;15.77;13.40;;;;;;;6.29;50.07;99465.66;8344222;28;20204;-84
2021/03/01 00:59:33;;;;;;;16.77;14.90;;;;;;;6.26;50.47;99469.09;8345068;28;20212;-84
2021/03/01 01:03:36;;;;;;;16.63;14.07;;;;;;;6.26;50.29;99469.09;8345489;28;20224;-84
2021/03/01 01:07:39;;;;;;;15.83;13.97;;;;;;;6.23;50.43;99474.25;8331754;28;20254;-84
2021/03/01 01:11:43;;;;;;;16.90;14.00;;;;;;;6.21;50.17;99474.25;8345640;28;20223;-84
2021/03/01 01:15:45;;;;;;;16.40;13.97;;;;;;;6.13;50.77;99467.41;8338870;28;20204;-85
2021/03/01 01:19:47;;;;;;;17.00;14.03;;;;;;;6.02;50.42;99468.31;8338399;28;20239;-84
2021/03/01 01:23:49;;;;;;;16.53;13.43;;;;;;;5.99;50.90;99463.16;8336995;28;20263;-86
2021/03/01 01:27:53;;;;;;;17.93;14.30;;;;;;;5.99;50.65;99468.28;8334954;28;20652;-86
2021/03/01 01:31:55;;;;;;;15.77;13.90;;;;;;;5.97;50.38;99461.47;8333954;28;20204;-86
2021/03/01 01:35:57;;;;;;;17.47;15.37;;;;;;;5.96;50.32;99460.59;8334693;28;20287;-86
2021/03/01 01:39:59;;;;;;;17.07;14.67;;;;;;;5.70;50.26;99439.19;8334314;28;20215;-87
2021/03/01 01:44:03;;;;;;;17.37;14.10;;;;;;;5.76;50.42;99459.75;8333214;28;20270;-86
2021/03/01 01:48:06;;;;;;;16.83;13.93;;;;;;;5.74;50.16;99456.31;8333010;28;20599;-86
2021/03/01 01:52:08;;;;;;;19.40;14.87;;;;;;;5.77;50.24;99451.16;8334271;28;20648;-86
2021/03/01 01:56:10;;;;;;;17.47;13.83;;;;;;;5.76;50.59;99449.47;8333879;28;20201;-86
2021/03/01 02:00:25;;;;;;;20.47;15.23;;;;;;;5.63;51.12;99446.88;8334050;28;20215;-87
2021/03/01 02:04:31;;;;;;;16.63;14.13;;;;;;;5.63;51.40;99443.47;8333945;28;20236;-86
2021/03/01 02:08:47;;;;;;;19.27;14.77;;;;;;;5.71;51.24;99439.16;8334516;28;20208;-87
2021/03/01 02:12:54;;;;;;;19.27;15.53;;;;;;;5.65;51.07;99428.88;8335972;28;20207;-86
2021/03/01 02:16:58;;;;;;;17.67;14.97;;;;;;;5.60;51.37;99434.06;8317491;28;20243;-86
2021/03/01 02:21:09;;;;;;;16.60;14.23;;;;;;;5.51;51.26;99428.91;8335060;28;20561;-86
2021/03/01 02:25:16;;;;;;;19.03;14.90;;;;;;;5.47;50.88;99416.94;8317479;28;20552;-86
2021/03/01 02:29:20;;;;;;;21.23;14.70;;;;;;;5.32;50.98;99420.34;8335761;28;20209;-86
2021/03/01 02:33:23;;;;;;;19.00;15.47;;;;;;;5.38;51.27;99416.94;8336790;28;20227;-86
2021/03/01 02:37:26;;;;;;;18.93;14.83;;;;;;;5.37;51.11;99410.06;8341246;28;20213;-86
2021/03/01 02:41:30;;;;;;;17.80;14.77;;;;;;;5.33;51.31;99416.94;8340244;28;20197;-86
2021/03/01 02:45:32;;;;;;;19.17;14.60;;;;;;;5.29;50.73;99418.66;8344317;28;20216;-85
2021/03/01 02:49:35;;;;;;;18.20;14.70;;;;;;;5.20;50.13;99412.66;8360911;28;20200;-85
2021/03/01 02:53:38;;;;;;;18.50;15.13;;;;;;;5.12;50.36;99410.06;8355905;28;20215;-85
2021/03/01 02:57:42;;;;;;;16.90;14.20;;;;;;;5.05;50.84;99416.91;8354678;28;20200;-85
2021/03/01 03:01:44;;;;;;;17.73;14.60;;;;;;;5.10;51.15;99422.03;8354994;28;20207;-86
2021/03/01 03:05:47;;;;;;;18.73;14.47;;;;;;;5.08;51.60;99422.06;8352714;28;20223;-86
2021/03/01 03:09:49;;;;;;;18.53;14.17;;;;;;;5.12;51.84;99414.34;8353946;28;20311;-86
2021/03/01 03:13:54;;;;;;;16.07;14.03;;;;;;;5.08;51.79;99416.94;8354214;28;20245;-86
2021/03/01 03:17:58;;;;;;;18.23;13.90;;;;;;;5.07;51.30;99417.78;8355692;28;20205;-85
2021/03/01 03:22:00;;;;;;;18.80;14.63;;;;;;;5.02;51.24;99424.59;8355096;28;20259;-85
2021/03/01 03:26:02;;;;;;;19.10;14.57;;;;;;;4.99;51.83;99424.63;8356562;28;20235;-85
2021/03/01 03:30:10;;;;;;;15.67;13.97;;;;;;;4.95;51.59;99425.47;8355960;28;20211;-86
2021/03/01 03:34:15;;;;;;;17.77;14.00;;;;;;;4.89;51.92;99407.47;8356623;28;20216;-86
2021/03/01 03:38:21;;;;;;;17.17;14.40;;;;;;;4.87;51.92;99424.56;8349990;28;20537;-85
2021/03/01 03:42:24;;;;;;;18.27;14.30;;;;;;;4.97;51.94;99425.44;8321634;28;20212;-86
2021/03/01 03:46:29;;;;;;;20.73;15.03;;;;;;;5.04;52.60;99433.16;8338661;28;20231;-86
2021/03/01 03:50:32;;;;;;;19.63;15.63;;;;;;;5.02;53.37;99426.31;8337807;28;20208;-86
2021/03/01 03:54:37;;;;;;;21.93;15.30;;;;;;;5.05;52.83;99434.03;8338795;28;20605;-86
2021/03/01 03:58:43;;;;;;;19.77;15.63;;;;;;;5.01;52.40;99428.03;8338641;28;20243;-86
2021/03/01 04:02:46;;;;;;;18.73;16.00;;;;;;;5.08;52.11;99431.47;8327110;28;20188;-86
2021/03/01 04:06:49;;;;;;;18.27;15.10;;;;;;;5.02;51.87;99442.56;8348734;28;20232;-86
2021/03/01 04:10:53;;;;;;;18.73;15.40;;;;;;;4.86;52.48;99439.13;8333151;28;20200;-85
2021/03/01 04:14:56;;;;;;;16.77;14.73;;;;;;;4.87;52.72;99433.16;8355678;28;20196;-85
2021/03/01 04:19:03;;;;;;;16.57;14.27;;;;;;;4.85;52.78;99447.66;8355907;28;20212;-84
2021/03/01 04:23:06;;;;;;;17.47;14.40;;;;;;;4.79;53.20;99436.53;8387180;28;20232;-84
2021/03/01 04:27:09;;;;;;;17.87;15.37;;;;;;;4.81;53.34;99445.09;8358699;28;20204;-84
2021/03/01 04:31:16;;;;;;;19.20;14.40;;;;;;;4.78;53.29;99445.97;8359582;28;20203;-84
2021/03/01 04:35:20;;;;;;;20.40;14.90;;;;;;;4.86;53.29;99441.69;8360519;28;20268;-84
2021/03/01 04:39:22;;;;;;;17.43;14.83;;;;;;;4.80;53.20;99440.84;8360713;28;20200;-85
2021/03/01 04:43:25;;;;;;;17.33;15.47;;;;;;;4.77;52.96;99435.69;8361253;28;20284;-85
2021/03/01 04:47:29;;;;;;;22.83;15.87;;;;;;;4.78;52.88;99439.94;8362632;28;20202;-85
2021/03/01 04:51:32;;;;;;;18.33;16.37;;;;;;;4.72;52.58;99438.22;8364515;28;20200;-85
2021/03/01 04:55:34;;;;;;;17.30;14.83;;;;;;;4.65;52.39;99439.94;8370782;28;20193;-84
2021/03/01 04:59:37;;;;;;;18.67;16.30;;;;;;;4.58;52.26;99435.63;8371380;28;20244;-85
2021/03/01 05:03:39;;;;;;;18.53;15.83;;;;;;;4.51;51.89;99428.75;8321718;28;20234;-86
2021/03/01 05:07:43;;;;;;;16.97;14.50;;;;;;;4.44;51.91;99433.03;8335658;28;20629;-87
2021/03/01 05:11:45;;;;;;;18.27;14.67;;;;;;;4.39;51.87;99418.47;8360276;28;20204;-87
2021/03/01 05:15:48;;;;;;;19.97;14.73;;;;;;;4.44;51.78;99427.03;8347226;28;20212;-86
2021/03/01 05:19:50;;;;;;;19.20;14.80;;;;;;;4.33;52.50;99429.56;8340146;28;20211;-86
2021/03/01 05:23:54;;;;;;;18.30;15.60;;;;;;;4.24;52.89;99425.22;8322752;28;20599;-85
2021/03/01 05:27:56;;;;;;;20.70;15.70;;;;;;;4.29;52.78;99418.41;8337888;28;20197;-85
2021/03/01 05:31:58;;;;;;;19.13;15.30;;;;;;;4.33;52.59;99423.56;8339504;28;20200;-85
2021/03/01 05:36:01;;;;;;;20.37;16.17;;;;;;;4.31;52.69;99411.59;8322999;28;20205;-84
2021/03/01 05:40:06;;;;;;;21.73;16.23;;;;;;;4.29;53.34;99422.69;8340064;28;20539;-85
2021/03/01 05:44:09;;;;;;;18.60;15.97;;;;;;;4.27;53.44;99419.28;8339663;28;20224;-84
2021/03/01 05:48:12;;;;;;;19.60;16.30;;;;;;;4.36;53.44;99427.00;8337622;28;20212;-83
2021/03/01 05:52:17;;;;;;;22.17;17.77;;;;;;;4.40;53.42;99433.88;8337695;28;20208;-83
2021/03/01 05:56:21;;;;;;;21.33;17.40;;;;;;;4.31;53.62;99434.66;8339410;28;20207;-84
2021/03/01 06:00:24;;;;;;;21.33;16.90;;;;;;;4.22;53.73;99454.28;8337493;28;20200;-85
2021/03/01 06:04:26;;;;;;;21.70;16.00;;;;;;;4.23;53.75;99454.31;8336967;28;20236;-85
2021/03/01 06:08:30;;;;;;;22.90;16.73;;;;;;;4.25;53.97;99462.00;8340587;28;20344;-85
2021/03/01 06:12:34;;;;;;;21.07;16.00;;;;;;;4.33;53.83;99456.91;8343405;28;20219;-83
2021/03/01 06:17:04;;;;;;;23.90;16.77;;;;;;;4.36;53.27;99462.03;8343762;28;20590;-84
2021/03/01 06:21:10;;;;;;;19.57;15.90;;;;;;;4.27;53.00;99458.59;8340614;28;20237;-84
2021/03/01 06:25:14;;;;;;;19.77;15.90;;;;;;;4.69;52.23;99461.34;8344743;28;20225;-85
2021/03/01 06:29:18;;;;;;;18.97;15.90;;;;;;;5.03;51.01;99464.00;8344841;28;20231;-84
2021/03/01 06:33:20;;;;;;;20.33;16.27;;;;;;;5.59;49.57;99472.59;8343618;28;20707;-83
2021/03/01 06:37:22;;;;;;;21.50;16.03;;;;;;;5.87;48.84;99474.28;8344345;28;20221;-82
2021/03/01 06:41:25;;;;;;;17.87;14.87;;;;;;;6.05;48.27;99478.59;8350769;28;20212;-84
2021/03/01 06:45:28;;;;;;;19.93;16.90;;;;;;;6.25;48.57;99483.69;8326388;28;20229;-83
2021/03/01 06:49:35;;;;;;;18.57;15.47;;;;;;;6.73;47.35;99483.50;8349086;28;20235;-83
2021/03/01 06:53:38;;;;;;;20.37;15.33;;;;;;;7.04;47.24;99484.22;8339504;28;20296;-81
2021/03/01 06:57:40;;;;;;;20.83;16.73;;;;;;;7.04;46.84;99491.94;8348454;28;20224;-83
2021/03/01 07:01:47;;;;;;;20.03;17.53;;;;;;;7.33;46.63;99487.44;8358076;28;20201;-82
2021/03/01 07:05:50;;;;;;;19.60;16.57;;;;;;;7.36;45.66;99490.03;8354972;28;20240;-81
2021/03/01 07:09:55;;;;;;;23.30;17.80;;;;;;;7.51;45.22;99500.22;8349105;28;20204;-81
2021/03/01 07:14:08;;;;;;;25.23;19.20;;;;;;;7.88;44.84;99505.09;8353168;28;20211;-82
2021/03/01 07:18:11;;;;;;;23.30;17.77;;;;;;;8.71;52.81;99506.81;8349275;28;20201;-83
2021/03/01 07:22:15;;;;;;;29.20;16.17;;;;;;;11.76;53.06;99523.75;8347860;28;20676;-81
2021/03/01 07:26:17;;;;;;;24.63;18.30;;;;;;;12.26;42.86;99514.72;8347236;28;20231;-82
2021/03/01 07:30:21;;;;;;;26.43;18.57;;;;;;;12.49;39.74;99518.47;8353011;28;20250;-82
2021/03/01 07:34:52;;;;;;;23.07;18.10;;;;;;;12.83;38.11;99505.38;8370178;28;20189;-82
2021/03/01 07:38:58;;;;;;;25.57;20.70;;;;;;;12.01;36.87;99521.44;8347632;28;20184;-84
2021/03/01 07:43:00;;;;;;;24.00;19.77;;;;;;;11.34;39.02;99502.22;8350136;28;20208;-83
2021/03/01 07:47:05;;;;;;;24.47;19.20;;;;;;;11.14;40.08;99513.06;8350317;28;20232;-84
2021/03/01 07:51:10;;;;;;;21.00;18.63;;;;;;;11.18;40.87;99513.88;8351998;28;20274;-84
2021/03/01 07:55:12;;;;;;;23.30;18.13;;;;;;;11.38;41.16;99522.94;8336871;28;20583;-85
2021/03/01 07:59:30;;;;;;;21.37;19.07;;;;;;;11.46;40.57;99516.69;8337516;28;20716;-84
2021/03/01 08:03:36;;;;;;;21.27;19.07;;;;;;;11.47;40.31;99507.16;8356802;28;20235;-84
2021/03/01 08:07:42;;;;;;;22.07;19.77;;;;;;;11.39;40.96;99515.13;8355131;28;20232;-85
2021/03/01 08:11:46;;;;;;;23.23;19.93;;;;;;;11.70;41.15;99516.97;8354539;28;20254;-85
2021/03/01 08:15:48;;;;;;;23.23;20.53;;;;;;;11.72;40.94;99522.97;8352362;28;20216;-84
2021/03/01 08:19:50;;;;;;;20.80;18.60;;;;;;;12.39;39.97;99525.63;8355639;28;20216;-84
2021/03/01 08:23:53;;;;;;;23.97;18.87;;;;;;;12.63;38.91;99529.31;8354446;28;20581;-84
2021/03/01 08:27:56;;;;;;;23.37;19.97;;;;;;;12.70;38.42;99530.00;8354797;28;20231;-84
2021/03/01 08:32:12;;;;;;;20.40;18.00;;;;;;;13.03;38.85;99527.31;8347017;28;20212;-83
2021/03/01 08:36:25;;;;;;;21.07;18.80;;;;;;;13.35;38.50;99535.94;8346974;28;20223;-84
2021/03/01 08:40:28;;;;;;;21.77;18.70;;;;;;;13.65;37.23;99527.19;8348491;28;20188;-84
2021/03/01 08:44:30;;;;;;;21.23;18.80;;;;;;;13.74;37.05;99532.97;8351393;28;20224;-84
2021/03/01 08:48:40;;;;;;;21.87;19.47;;;;;;;13.76;35.40;99524.22;8350593;28;20208;-84
2021/03/01 08:52:49;;;;;;;23.10;19.13;;;;;;;14.28;35.99;99527.69;8357515;28;20196;-84
2021/03/01 08:57:05;;;;;;;22.13;17.47;;;;;;;14.77;34.68;99529.47;8353572;28;20208;-83
2021/03/01 09:01:09;;;;;;;22.07;18.60;;;;;;;14.19;34.51;99529.75;8330142;28;20235;-84
2021/03/01 09:05:12;;;;;;;22.43;17.47;;;;;;;15.18;33.75;99527.06;8348836;28;20587;-84
2021/03/01 09:09:14;;;;;;;18.90;16.57;;;;;;;15.52;33.21;99531.00;8347402;28;20200;-84
2021/03/01 09:13:18;;;;;;;22.93;18.87;;;;;;;14.95;33.54;99526.19;8350167;28;20200;-84
2021/03/01 09:17:24;;;;;;;26.50;19.10;;;;;;;15.51;32.74;99521.44;8350060;28;20211;-84
2021/03/01 09:21:27;;;;;;;18.00;12.87;;;;;;;17.17;41.50;99528.28;8350272;28;20578;-82
2021/03/01 09:25:31;;;;;;;19.43;15.03;;;;;;;17.93;35.67;99527.31;8346815;28;20585;-83
2021/03/01 09:29:34;;;;;;;23.63;18.00;;;;;;;17.59;30.20;99516.69;8347020;28;20243;-84
2021/03/01 09:33:39;;;;;;;21.67;17.97;;;;;;;17.27;30.36;99522.59;8347768;28;20250;-83
2021/03/01 09:37:42;;;;;;;21.63;18.20;;;;;;;17.49;30.20;99517.19;8348831;28;20211;-84
2021/03/01 09:41:45;;;;;;;21.20;18.60;;;;;;;17.66;29.98;99514.59;8349354;28;20204;-84
2021/03/01 09:45:48;;;;;;;20.97;18.10;;;;;;;17.77;28.60;99517.53;8352201;28;20227;-83
2021/03/01 09:49:50;;;;;;;19.70;17.23;;;;;;;17.51;29.01;99515.34;8361910;28;20192;-83
2021/03/01 09:53:52;;;;;;;19.33;16.50;;;;;;;17.86;28.97;99512.78;8344197;28;20212;-84
2021/03/01 09:57:58;;;;;;;25.20;16.37;;;;;;;18.03;28.53;99510.22;8359748;28;20287;-83
2021/03/01 10:02:07;;;;;;;18.87;16.67;;;;;;;17.87;28.49;99502.25;8352662;28;20204;-84
2021/03/01 10:06:11;;;;;;;23.63;16.60;;;;;;;18.12;29.37;99514.13;8347682;28;20237;-84
2021/03/01 10:10:15;;;;;;;20.37;15.27;;;;;;;18.11;29.33;99510.66;8351706;28;20746;-84
2021/03/01 10:14:17;;;;;;;23.97;16.53;;;;;;;18.20;28.00;99503.25;8358165;28;20204;-85
2021/03/01 10:18:22;;;;;;;17.80;15.60;;;;;;;18.44;28.56;99498.50;8351576;28;20239;-83
2021/03/01 10:22:25;;;;;;;17.80;15.70;;;;;;;17.87;28.10;99499.63;8346351;28;20259;-83
2021/03/01 10:26:27;;;;;;;15.90;14.20;;;;;;;18.35;27.89;99497.19;8328020;28;20315;-82
2021/03/01 10:30:28;;;;;;;18.00;14.47;;;;;;;18.33;28.35;99491.19;8346503;28;20207;-80
2021/03/01 10:34:35;;;;;;;20.70;15.73;;;;;;;18.58;28.23;99493.38;8344786;28;20197;-83
2021/03/01 10:38:51;;;;;;;17.10;13.33;;;;;;;18.68;28.01;99483.25;8343865;28;20240;-81
2021/03/01 10:42:54;;;;;;;22.63;15.53;;;;;;;18.24;27.47;99487.28;8345573;28;20212;-81
2021/03/01 10:46:56;;;;;;;16.50;13.30;;;;;;;18.29;28.27;99487.88;8346054;28;20224;-81
2021/03/01 10:50:59;;;;;;;20.73;14.70;;;;;;;18.46;27.99;99476.50;8351788;28;20295;-81
2021/03/01 10:55:01;;;;;;;16.43;13.17;;;;;;;18.47;28.29;99480.84;8350218;28;20204;-81
2021/03/01 10:59:03;;;;;;;17.67;13.37;;;;;;;18.42;28.29;99474.97;8357717;28;20224;-81
2021/03/01 11:03:05;;;;;;;17.13;12.90;;;;;;;18.28;28.07;99472.25;8362489;28;20215;-82
2021/03/01 11:07:08;;;;;;;18.37;14.83;;;;;;;17.41;29.32;99467.81;8363926;28;20266;-82
2021/03/01 11:11:12;;;;;;;19.10;12.80;;;;;;;18.19;28.65;99470.94;8353540;28;20216;-82
2021/03/01 11:15:14;;;;;;;15.73;13.57;;;;;;;17.97;28.52;99468.56;8348988;28;20212;-80
2021/03/01 11:19:16;;;;;;;18.43;13.27;;;;;;;17.68;29.24;99455.13;8348850;28;20215;-81
2021/03/01 11:23:21;;;;;;;14.57;13.00;;;;;;;17.60;28.93;99449.44;8349299;28;20233;-81
2021/03/01 11:27:22;;;;;;;18.57;11.27;;;;;;;17.82;30.51;99443.09;8348005;28;20228;-83
2021/03/01 11:31:24;;;;;;;14.40;12.07;;;;;;;18.03;29.39;99447.28;8341511;28;20216;-82
2021/03/01 11:35:26;;;;;;;13.67;11.60;;;;;;;17.23;29.34;99450.38;8337058;28;20200;-81
2021/03/01 11:39:29;;;;;;;16.70;11.43;;;;;;;17.72;29.79;99438.31;8333723;28;20204;-81
2021/03/01 11:43:31;;;;;;;17.07;11.60;;;;;;;17.73;30.03;99431.31;8351011;28;20217;-82
2021/03/01 11:47:33;;;;;;;16.27;12.07;;;;;;;17.43;29.15;99423.22;8361823;28;20204;-82
2021/03/01 11:51:35;;;;;;;14.63;10.53;;;;;;;17.78;30.26;99421.44;8360930;28;20204;-83
2021/03/01 11:55:38;;;;;;;10.57;9.50;;;;;;;17.96;29.59;99410.06;8363864;28;20576;-83
2021/03/01 11:59:41;;;;;;;12.23;9.67;;;;;;;17.86;29.39;99402.75;8365121;28;20204;-82
2021/03/01 12:03:43;;;;;;;13.53;9.57;;;;;;;17.94;29.22;99401.44;8359013;28;20608;-82
2021/03/01 12:07:48;;;;;;;12.37;9.70;;;;;;;17.66;29.49;99385.41;8353005;28;20205;-82
2021/03/01 12:11:51;;;;;;;11.83;8.57;;;;;;;17.72;29.44;99383.31;8333051;28;20201;-82
2021/03/01 12:15:53;;;;;;;11.07;9.23;;;;;;;17.60;29.63;99378.69;8312773;28;20208;-81
2021/03/01 12:19:55;;;;;;;12.03;8.97;;;;;;;17.70;29.35;99368.59;8313059;28;20251;-84
2021/03/01 12:23:57;;;;;;;16.17;9.43;;;;;;;17.08;29.32;99360.38;8311934;28;20244;-83
2021/03/01 12:28:00;;;;;;;9.50;8.47;;;;;;;17.45;29.76;99356.75;8312650;28;20215;-83
2021/03/01 12:32:03;;;;;;;12.47;9.73;;;;;;;16.85;30.11;99350.97;8317681;28;20205;-83
2021/03/01 12:36:06;;;;;;;9.93;8.33;;;;;;;16.95;30.52;99344.41;8337352;28;20201;-83
2021/03/01 12:40:08;;;;;;;10.37;8.07;;;;;;;17.08;30.30;99331.56;8344181;28;20334;-84
2021/03/01 12:44:11;;;;;;;11.70;8.37;;;;;;;17.39;29.43;99326.47;8344213;28;20231;-84
2021/03/01 12:48:15;;;;;;;9.27;7.77;;;;;;;17.68;28.79;99336.41;8344023;28;20215;-83
2021/03/01 12:52:17;;;;;;;8.93;6.83;;;;;;;17.65;29.35;99320.81;8344674;28;20205;-84
2021/03/01 12:56:19;;;;;;;10.13;6.83;;;;;;;17.10;29.17;99324.50;8347224;28;20201;-84
2021/03/01 13:00:23;;;;;;;15.03;5.70;;;;;;;17.14;28.99;99324.25;8351799;28;20215;-81
2021/03/01 13:04:26;;;;;;;7.17;5.83;;;;;;;17.58;29.12;99321.16;8344301;28;20240;-83
2021/03/01 13:08:28;;;;;;;12.03;5.83;;;;;;;18.21;40.52;99313.56;8345871;28;20216;-83
2021/03/01 13:12:30;;;;;;;18.33;5.83;;;;;;;18.40;37.68;99311.59;8352410;28;20228;-83
2021/03/01 13:16:33;;;;;;;13.93;5.77;;;;;;;18.65;37.07;99308.47;8347807;28;20238;-84
2021/03/01 13:20:35;;;;;;;12.27;5.77;;;;;;;18.66;36.87;99307.53;8349693;28;20211;-85
2021/03/01 13:24:38;;;;;;;15.33;5.87;;;;;;;18.76;35.04;99300.00;8350544;28;20224;-84
2021/03/01 13:28:40;;;;;;;13.00;5.50;;;;;;;18.94;32.63;99301.59;8355578;28;20204;-84
2021/03/01 13:32:43;;;;;;;12.33;5.10;;;;;;;19.27;31.43;99295.31;8357413;28;20219;-84
2021/03/01 13:36:45;;;;;;;5.67;4.10;;;;;;;18.56;26.09;99294.09;8356325;28;20196;-82
2021/03/01 13:40:46;;;;;;;7.73;3.50;;;;;;;18.54;28.79;99292.47;8348836;28;20200;-81
2021/03/01 13:44:48;;;;;;;7.23;3.83;;;;;;;18.70;28.27;99287.22;8344558;28;20224;-86
2021/03/01 13:48:51;;;;;;;12.97;3.70;;;;;;;19.31;31.55;99285.47;8344944;28;20204;-84
2021/03/01 13:52:53;;;;;;;5.80;3.40;;;;;;;17.94;24.66;99273.00;8318756;28;20220;-84
2021/03/01 13:56:55;;;;;;;3.83;2.70;;;;;;;18.77;26.27;99278.03;8320727;28;20193;-84
2021/03/01 14:00:57;;;;;;;5.33;2.80;;;;;;;18.26;24.24;99282.66;8327669;28;20227;-84
2021/03/01 14:05:01;;;;;;;4.07;3.10;;;;;;;18.09;23.87;99273.97;8346161;28;20235;-84
2021/03/01 14:09:03;;;;;;;7.93;3.80;;;;;;;18.09;24.60;99275.75;8343195;28;20200;-82
2021/03/01 14:13:05;;;;;;;10.20;4.13;;;;;;;17.49;24.61;99279.72;8349283;28;20200;-84
2021/03/01 14:17:07;;;;;;;6.80;3.40;;;;;;;17.66;24.75;99265.75;8349452;28;20205;-82
2021/03/01 14:21:10;;;;;;;8.07;3.20;;;;;;;17.38;24.69;99259.34;8352344;28;20315;-83
2021/03/01 14:25:12;;;;;;;8.07;3.40;;;;;;;17.51;25.36;99256.06;8357651;28;20232;-82
2021/03/01 14:29:14;;;;;;;6.23;3.20;;;;;;;17.47;24.52;99251.94;8375859;28;20204;-83
2021/03/01 14:33:16;;;;;;;4.10;2.70;;;;;;;17.68;25.25;99252.56;8354570;28;20207;-82
2021/03/01 14:37:20;;;;;;;5.17;3.10;;;;;;;17.30;25.13;99250.19;8353096;28;20212;-82
2021/03/01 14:41:22;;;;;;;5.07;2.50;;;;;;;17.86;25.79;99248.13;8355901;28;20204;-83
2021/03/01 14:45:23;;;;;;;7.53;2.93;;;;;;;17.39;25.45;99241.84;8356293;28;20289;-83
2021/03/01 14:49:25;;;;;;;7.90;2.97;;;;;;;17.77;25.32;99237.19;8355551;28;20314;-82
2021/03/01 14:53:29;;;;;;;8.73;3.27;;;;;;;17.39;25.52;99247.09;8353152;28;20207;-82
2021/03/01 14:57:31;;;;;;;5.67;2.70;;;;;;;16.74;25.42;99249.47;8357259;28;20215;-82
2021/03/01 15:01:34;;;;;;;6.63;2.90;;;;;;;16.86;26.02;99243.66;8344753;28;20257;-82
2021/03/01 15:05:39;;;;;;;4.73;3.07;;;;;;;16.92;26.02;99242.50;8355111;28;20228;-84
2021/03/01 15:09:43;;;;;;;6.70;2.80;;;;;;;16.85;26.04;99243.72;8357192;28;20212;-83
2021/03/01 15:13:45;;;;;;;6.67;3.17;;;;;;;16.68;28.18;99236.66;8359080;28;20200;-82
2021/03/01 15:17:47;;;;;;;6.40;3.53;;;;;;;17.31;28.53;99247.50;8360768;28;20215;-82
2021/03/01 15:21:49;;;;;;;5.70;3.73;;;;;;;17.38;28.29;99243.63;8359659;28;20233;-83
2021/03/01 15:25:53;;;;;;;5.27;3.50;;;;;;;17.29;28.59;99241.47;8330915;28;20228;-82
2021/03/01 15:29:56;;;;;;;5.40;3.50;;;;;;;17.14;28.45;99250.97;8339684;28;20193;-84
2021/03/01 15:33:58;;;;;;;5.90;3.20;;;;;;;16.68;28.79;99244.53;8333799;28;20653;-84
2021/03/01 15:38:03;;;;;;;6.57;3.83;;;;;;;16.54;29.32;99245.19;8347836;28;20208;-85
2021/03/01 15:42:07;;;;;;;10.07;4.03;;;;;;;16.51;29.38;99245.38;8330020;28;20236;-84
2021/03/01 15:46:09;;;;;;;5.10;3.60;;;;;;;16.35;29.39;99248.69;8329036;28;20224;-84
2021/03/01 15:50:13;;;;;;;5.60;3.17;;;;;;;15.83;29.78;99238.06;8346359;28;20211;-84
2021/03/01 15:54:15;;;;;;;4.13;3.10;;;;;;;15.74;30.41;99235.88;8328766;28;20207;-83
2021/03/01 15:58:18;;;;;;;4.63;2.73;;;;;;;15.68;30.98;99233.50;8326958;28;20572;-84
2021/03/01 16:02:20;;;;;;;7.00;3.07;;;;;;;15.44;31.31;99241.53;8349521;28;20223;-84
2021/03/01 16:06:23;;;;;;;6.50;3.33;;;;;;;15.11;31.49;99234.22;8347197;28;20308;-84
2021/03/01 16:10:27;;;;;;;5.83;3.47;;;;;;;14.95;32.20;99244.47;8320682;28;20207;-84
2021/03/01 16:14:30;;;;;;;4.00;3.27;;;;;;;15.05;32.28;99244.94;8322769;28;20197;-85
2021/03/01 16:18:32;;;;;;;6.07;3.23;;;;;;;14.94;32.35;99234.94;8337633;28;20201;-84
2021/03/01 16:22:34;;;;;;;6.73;2.97;;;;;;;14.68;32.73;99236.03;8319795;28;20262;-84
2021/03/01 16:26:37;;;;;;;4.30;2.37;;;;;;;14.79;32.76;99227.75;8311071;28;20248;-85
2021/03/01 16:30:41;;;;;;;7.53;2.80;;;;;;;14.76;32.93;99243.56;8330634;28;20212;-85
2021/03/01 16:34:45;;;;;;;7.70;3.17;;;;;;;14.78;33.59;99242.56;8323996;28;20208;-85
2021/03/01 16:38:47;;;;;;;4.30;2.47;;;;;;;14.81;33.18;99239.84;8343859;28;20216;-85
2021/03/01 16:42:50;;;;;;;8.87;5.70;;;;;;;14.61;32.76;99243.25;8335015;28;20208;-85
2021/03/01 16:46:56;;;;;;;8.43;4.43;;;;;;;14.41;32.15;99243.16;8349949;28;20232;-85
2021/03/01 16:50:59;;;;;;;7.17;4.70;;;;;;;14.36;40.90;99245.13;8337348;28;20223;-84
2021/03/01 16:55:02;;;;;;;8.70;4.90;;;;;;;14.08;32.00;99252.22;8331981;28;20668;-83
2021/03/01 16:59:05;;;;;;;6.40;3.83;;;;;;;13.94;32.10;99238.91;8337331;28;20199;-84
2021/03/01 17:03:10;;;;;;;7.30;3.00;;;;;;;14.00;32.06;99259.50;8342548;28;20241;-84
2021/03/01 17:07:21;;;;;;;6.70;3.83;;;;;;;13.98;32.26;99263.06;8350670;28;20254;-84
2021/03/01 17:11:26;;;;;;;4.67;2.97;;;;;;;13.83;32.29;99259.28;8325593;28;20194;-84
2021/03/01 17:15:29;;;;;;;4.43;2.70;;;;;;;13.85;32.67;99265.28;8336966;28;20200;-83
2021/03/01 17:19:34;;;;;;;4.60;2.40;;;;;;;13.65;32.67;99268.59;8331330;28;20200;-85
2021/03/01 17:23:38;;;;;;;5.03;2.53;;;;;;;13.53;33.09;99271.66;8334165;28;20228;-85
2021/03/01 17:27:40;;;;;;;9.90;2.80;;;;;;;13.37;33.25;99269.59;8346897;28;20216;-87
2021/03/01 17:31:42;;;;;;;4.47;3.10;;;;;;;13.51;33.40;99278.66;8336688;28;20200;-85
2021/03/01 17:35:48;;;;;;;5.80;2.60;;;;;;;13.55;33.34;99272.44;8336259;28;20231;-85
2021/03/01 17:39:50;;;;;;;6.30;2.70;;;;;;;13.38;33.43;99271.28;8330583;28;20645;-85
2021/03/01 17:43:52;;;;;;;3.67;2.50;;;;;;;13.22;33.86;99273.53;8338015;28;20200;-85
2021/03/01 17:47:58;;;;;;;3.73;2.63;;;;;;;13.29;33.79;99276.78;8331442;28;20221;-85
2021/03/01 17:52:04;;;;;;;5.87;3.13;;;;;;;13.09;33.90;99286.09;8328887;28;20561;-86
2021/03/01 17:56:16;;;;;;;6.97;3.67;;;;;;;13.25;34.15;99280.38;8332271;28;20667;-84
2021/03/01 18:00:20;;;;;;;5.40;3.37;;;;;;;13.09;34.08;99270.50;8342067;28;20202;-84
2021/03/01 18:04:27;;;;;;;7.77;4.73;;;;;;;12.99;34.50;99279.53;8339722;28;20215;-81
2021/03/01 18:08:32;;;;;;;4.77;3.03;;;;;;;12.95;34.69;99282.28;8332062;28;20200;-80
2021/03/01 18:12:35;;;;;;;5.40;2.87;;;;;;;12.80;35.01;99279.28;8339951;28;20223;-82
2021/03/01 18:16:37;;;;;;;4.30;2.80;;;;;;;12.75;35.18;99286.38;8342047;28;20200;-82
2021/03/01 18:20:59;;;;;;;6.27;3.23;;;;;;;12.72;35.44;99286.47;8339792;28;20232;-82
2021/03/01 18:25:05;;;;;;;6.17;3.80;;;;;;;12.60;35.64;99286.84;8350651;28;20299;-83
2021/03/01 18:29:10;;;;;;;4.23;3.70;;;;;;;12.64;35.63;99289.31;8354551;28;20203;-81
2021/03/01 18:33:12;;;;;;;5.40;3.20;;;;;;;12.61;35.87;99292.00;8352346;28;20207;-82
2021/03/01 18:37:16;;;;;;;5.67;3.60;;;;;;;12.61;36.13;99283.38;8357885;28;20208;-80
2021/03/01 18:41:19;;;;;;;5.33;3.80;;;;;;;12.56;36.10;99290.44;8357829;28;20545;-82
2021/03/01 18:45:24;;;;;;;6.57;3.70;;;;;;;12.69;36.17;99294.38;8354617;28;20274;-82
2021/03/01 18:49:26;;;;;;;5.70;3.33;;;;;;;12.69;35.90;99292.59;8358181;28;20579;-84
2021/03/01 18:53:27;;;;;;;7.63;4.30;;;;;;;12.62;36.01;99292.84;8357671;28;20205;-83
2021/03/01 18:57:30;;;;;;;6.43;3.97;;;;;;;12.32;36.51;99296.34;8360837;28;20200;-83